Puerto Escondido International Airport
MMPS : now visible

Airfield :











YOU CAN JOIN US ON...

 
LOGIN :

Register | Disclaimer

   EN    FR    IT 

 









Legend :    VFR   Marginal VFR   IFR   Intensive IFR   Very Intensive IFR
Visi :
Ceiling :
>= 8 km
>= 3000ft
5 to 8 km
1000 to 3000 ft
1500m to 5 km
500 to 1000 ft
800 to 1500m
200 to 500 ft
< 800m
< 200 ft
Symbols :   Thunderstorms  Fog  Heavy snow  Heavy precipitations  Wind > 20 kt







- Airport Elevation : 294 ft
- IATA code : PXM


MMPS - Puerto Escondido International

CURRENT METAR :
  • 161240Z 09007KT 12SM FEW080 SCT220 24/18 A2985 RMK 8/032

EXPIRED METARs :
  • 161146Z 06005KT 10SM SCT220 24/18 A2985 RMK 8/002 HZY RTS

TAF TAF MMPS
Valid from the 16 at 06:00 until the 17 at 06:00 UTC


160451Z 1606/1706 00000KT P6SM SCT015CB BKN080
TEMPO 1606/1608 5SM TSRA BKN015CB
FM160800 00000KT P6SM SCT020 BKN250
FM161800 20008KT P6SM SCT020 SCT250
PROB40 1623/1703 5SM TSRA BKN015CB
No reported NOTAMs for that airfield.



MET'MAP, your aeronautical weather chart ! - Copyright ORBIFLY December 2007 - Disclaimer

ORBIFLY MET'MAP TEAM :

Programming & Development : Alexandra Zaïnal
Concept & Development : Baudouin d'Aumeries
Co-Development & Prog : Marc-Olivier Méhu
Technical & hardware support : Manuel Goepfert

Contact : metmap@orbifly.com




SOURCES & CREDITS :

   NOAA       Earth
Advisory